Luther, Indiana
Current Conditions -  °F | °C
As of 12:55 AM on Monday 20 Oct 2014 (Local Time) from KHHG Reporting Station
Drizzle Drizzle  
Wind Chill: 47°   Ceiling: 9000
Heat Index: 47°   Visibility: 10mi
Dew Point: 42°   Wind: 3mph
Humidity: 83%   Direction: 230°SW
Pressure: 29.99"   Gusts: NA
Location:  41.056°N, 85.6112°W
Report Text: KHHG 200455Z AUTO 23003KT 10SM -DZ OVC090 08/06 A2999 RMK AO2 T00830055 401230000
Loading
Personal Weather Stations






























Interactive Weather Map
Tropical Storm Tracking
New forecast layout! Learn more

10-Day Weather Forecast

Advertisements
Track Severe Weather on mobile